sensor_id;sensor_type;location;lat;lon;timestamp;temperature;humidity
42227;DHT22;27892;52.378;13.122;2023-05-14T00:02:13;16.00;52.80
42227;DHT22;27892;52.378;13.122;2023-05-14T00:04:57;16.00;53.00
42227;DHT22;27892;52.378;13.122;2023-05-14T00:07:41;16.00;53.10
42227;DHT22;27892;52.378;13.122;2023-05-14T00:10:26;16.10;53.10
42227;DHT22;27892;52.378;13.122;2023-05-14T00:13:11;16.10;53.00
42227;DHT22;27892;52.378;13.122;2023-05-14T00:15:55;16.10;53.00
42227;DHT22;27892;52.378;13.122;2023-05-14T00:18:39;16.00;53.00
42227;DHT22;27892;52.378;13.122;2023-05-14T00:21:23;16.00;53.00
42227;DHT22;27892;52.378;13.122;2023-05-14T00:24:07;16.00;53.00
42227;DHT22;27892;52.378;13.122;2023-05-14T00:26:51;16.00;53.10
42227;DHT22;27892;52.378;13.122;2023-05-14T00:29:35;15.90;53.00
42227;DHT22;27892;52.378;13.122;2023-05-14T00:32:19;15.90;53.00
42227;DHT22;27892;52.378;13.122;2023-05-14T00:35:04;15.90;53.10
42227;DHT22;27892;52.378;13.122;2023-05-14T00:37:49;15.80;53.10
42227;DHT22;27892;52.378;13.122;2023-05-14T00:40:33;15.80;53.20
42227;DHT22;27892;52.378;13.122;2023-05-14T00:43:19;15.70;53.00
42227;DHT22;27892;52.378;13.122;2023-05-14T00:46:04;15.70;53.10
42227;DHT22;27892;52.378;13.122;2023-05-14T00:48:49;15.70;53.40
42227;DHT22;27892;52.378;13.122;2023-05-14T00:51:33;15.60;53.40
42227;DHT22;27892;52.378;13.122;2023-05-14T00:54:18;15.60;53.50
42227;DHT22;27892;52.378;13.122;2023-05-14T00:57:05;15.60;54.30
42227;DHT22;27892;52.378;13.122;2023-05-14T00:59:49;15.50;54.10
42227;DHT22;27892;52.378;13.122;2023-05-14T01:02:33;15.40;54.00
42227;DHT22;27892;52.378;13.122;2023-05-14T01:05:17;15.40;54.00
42227;DHT22;27892;52.378;13.122;2023-05-14T01:11:10;15.30;54.70
42227;DHT22;27892;52.378;13.122;2023-05-14T01:16:54;15.30;55.20
42227;DHT22;27892;52.378;13.122;2023-05-14T01:19:41;15.20;55.40
42227;DHT22;27892;52.378;13.122;2023-05-14T01:22:26;15.10;55.40
42227;DHT22;27892;52.378;13.122;2023-05-14T01:25:10;15.00;55.50
42227;DHT22;27892;52.378;13.122;2023-05-14T01:31:07;15.00;55.80
42227;DHT22;27892;52.378;13.122;2023-05-14T01:33:56;14.90;55.90
42227;DHT22;27892;52.378;13.122;2023-05-14T01:36:42;14.80;56.00
42227;DHT22;27892;52.378;13.122;2023-05-14T01:39:27;14.80;56.20
42227;DHT22;27892;52.378;13.122;2023-05-14T01:42:11;14.70;56.20
42227;DHT22;27892;52.378;13.122;2023-05-14T01:44:56;14.70;56.20
42227;DHT22;27892;52.378;13.122;2023-05-14T01:47:41;14.60;56.20
42227;DHT22;27892;52.378;13.122;2023-05-14T01:50:26;14.60;56.20
42227;DHT22;27892;52.378;13.122;2023-05-14T01:53:10;14.60;56.20
42227;DHT22;27892;52.378;13.122;2023-05-14T01:55:54;14.50;56.30
42227;DHT22;27892;52.378;13.122;2023-05-14T01:58:38;14.50;56.30
42227;DHT22;27892;52.378;13.122;2023-05-14T02:01:22;14.50;56.30
42227;DHT22;27892;52.378;13.122;2023-05-14T02:04:08;14.40;56.20
42227;DHT22;27892;52.378;13.122;2023-05-14T02:06:53;14.40;56.30
42227;DHT22;27892;52.378;13.122;2023-05-14T02:09:37;14.30;56.10
42227;DHT22;27892;52.378;13.122;2023-05-14T02:12:22;14.30;56.30
42227;DHT22;27892;52.378;13.122;2023-05-14T02:15:07;14.30;56.40
42227;DHT22;27892;52.378;13.122;2023-05-14T02:17:54;14.20;56.60
42227;DHT22;27892;52.378;13.122;2023-05-14T02:20:38;14.20;56.80
42227;DHT22;27892;52.378;13.122;2023-05-14T02:23:22;14.20;57.00
42227;DHT22;27892;52.378;13.122;2023-05-14T02:26:06;14.20;57.10
42227;DHT22;27892;52.378;13.122;2023-05-14T02:28:52;14.20;57.20
42227;DHT22;27892;52.378;13.122;2023-05-14T02:31:36;14.20;57.10
42227;DHT22;27892;52.378;13.122;2023-05-14T02:34:21;14.20;57.80
42227;DHT22;27892;52.378;13.122;2023-05-14T02:37:05;14.10;57.20
42227;DHT22;27892;52.378;13.122;2023-05-14T02:39:50;14.10;57.30
42227;DHT22;27892;52.378;13.122;2023-05-14T02:42:34;14.10;57.10
42227;DHT22;27892;52.378;13.122;2023-05-14T02:45:18;14.00;57.20
42227;DHT22;27892;52.378;13.122;2023-05-14T02:48:02;14.00;57.40
42227;DHT22;27892;52.378;13.122;2023-05-14T02:50:48;14.00;57.60
42227;DHT22;27892;52.378;13.122;2023-05-14T02:53:32;14.00;57.50
42227;DHT22;27892;52.378;13.122;2023-05-14T02:56:16;13.90;57.50
42227;DHT22;27892;52.378;13.122;2023-05-14T02:59:01;13.90;57.60
42227;DHT22;27892;52.378;13.122;2023-05-14T03:01:45;13.90;57.70
42227;DHT22;27892;52.378;13.122;2023-05-14T03:04:29;13.80;57.70
42227;DHT22;27892;52.378;13.122;2023-05-14T03:07:13;13.80;58.50
42227;DHT22;27892;52.378;13.122;2023-05-14T03:09:57;13.80;57.80
42227;DHT22;27892;52.378;13.122;2023-05-14T03:12:43;13.80;57.80
42227;DHT22;27892;52.378;13.122;2023-05-14T03:15:27;13.80;57.90
42227;DHT22;27892;52.378;13.122;2023-05-14T03:18:15;13.70;57.90
42227;DHT22;27892;52.378;13.122;2023-05-14T03:20:59;13.80;58.20
42227;DHT22;27892;52.378;13.122;2023-05-14T03:23:43;13.80;58.00
42227;DHT22;27892;52.378;13.122;2023-05-14T03:26:27;13.80;58.10
42227;DHT22;27892;52.378;13.122;2023-05-14T03:29:11;13.90;58.30
42227;DHT22;27892;52.378;13.122;2023-05-14T03:31:56;13.90;58.20
42227;DHT22;27892;52.378;13.122;2023-05-14T03:34:40;14.00;58.30
42227;DHT22;27892;52.378;13.122;2023-05-14T03:37:24;14.00;58.50
42227;DHT22;27892;52.378;13.122;2023-05-14T03:40:09;14.10;58.70
42227;DHT22;27892;52.378;13.122;2023-05-14T03:42:53;14.10;58.70
42227;DHT22;27892;52.378;13.122;2023-05-14T03:45:39;14.30;59.00
42227;DHT22;27892;52.378;13.122;2023-05-14T03:48:23;14.30;59.00
42227;DHT22;27892;52.378;13.122;2023-05-14T03:50:49;14.40;59.00
42227;DHT22;27892;52.378;13.122;2023-05-14T03:53:15;14.40;59.00
42227;DHT22;27892;52.378;13.122;2023-05-14T03:55:41;14.50;59.30
42227;DHT22;27892;52.378;13.122;2023-05-14T03:58:25;14.60;59.30
42227;DHT22;27892;52.378;13.122;2023-05-14T04:01:09;14.60;59.30
42227;DHT22;27892;52.378;13.122;2023-05-14T04:03:53;14.70;59.50
42227;DHT22;27892;52.378;13.122;2023-05-14T04:06:38;14.70;59.30
42227;DHT22;27892;52.378;13.122;2023-05-14T04:09:22;14.70;59.30
42227;DHT22;27892;52.378;13.122;2023-05-14T04:12:06;14.70;59.40
42227;DHT22;27892;52.378;13.122;2023-05-14T04:14:51;14.80;59.50
42227;DHT22;27892;52.378;13.122;2023-05-14T04:17:35;14.80;59.70
42227;DHT22;27892;52.378;13.122;2023-05-14T04:20:19;14.90;59.50
42227;DHT22;27892;52.378;13.122;2023-05-14T04:23:03;14.90;59.40
42227;DHT22;27892;52.378;13.122;2023-05-14T04:25:47;14.90;59.50
42227;DHT22;27892;52.378;13.122;2023-05-14T04:28:31;14.90;59.70
42227;DHT22;27892;52.378;13.122;2023-05-14T04:31:15;15.00;59.60
42227;DHT22;27892;52.378;13.122;2023-05-14T04:33:59;15.00;59.90
42227;DHT22;27892;52.378;13.122;2023-05-14T04:36:44;15.00;59.70
42227;DHT22;27892;52.378;13.122;2023-05-14T04:39:29;15.10;59.70
42227;DHT22;27892;52.378;13.122;2023-05-14T04:42:13;15.10;59.70
42227;DHT22;27892;52.378;13.122;2023-05-14T04:44:57;15.20;59.40
42227;DHT22;27892;52.378;13.122;2023-05-14T04:47:42;15.30;57.80
42227;DHT22;27892;52.378;13.122;2023-05-14T04:50:26;15.40;56.70
42227;DHT22;27892;52.378;13.122;2023-05-14T04:53:10;15.60;56.20
42227;DHT22;27892;52.378;13.122;2023-05-14T04:55:54;15.80;55.50
42227;DHT22;27892;52.378;13.122;2023-05-14T04:58:39;16.00;54.90
42227;DHT22;27892;52.378;13.122;2023-05-14T05:01:23;16.20;54.30
42227;DHT22;27892;52.378;13.122;2023-05-14T05:04:07;16.40;54.10
42227;DHT22;27892;52.378;13.122;2023-05-14T05:06:51;16.60;53.30
42227;DHT22;27892;52.378;13.122;2023-05-14T05:09:36;16.80;52.90
42227;DHT22;27892;52.378;13.122;2023-05-14T05:12:20;16.90;51.80
42227;DHT22;27892;52.378;13.122;2023-05-14T05:15:05;17.00;50.90
42227;DHT22;27892;52.378;13.122;2023-05-14T05:17:50;17.20;50.90
42227;DHT22;27892;52.378;13.122;2023-05-14T05:20:34;17.40;50.90
42227;DHT22;27892;52.378;13.122;2023-05-14T05:23:19;17.60;50.10
42227;DHT22;27892;52.378;13.122;2023-05-14T05:26:03;17.70;48.90
42227;DHT22;27892;52.378;13.122;2023-05-14T05:28:47;17.70;48.30
42227;DHT22;27892;52.378;13.122;2023-05-14T05:31:31;17.90;48.50
42227;DHT22;27892;52.378;13.122;2023-05-14T05:34:15;18.10;48.00
42227;DHT22;27892;52.378;13.122;2023-05-14T05:37:00;18.40;47.70
42227;DHT22;27892;52.378;13.122;2023-05-14T05:39:44;18.60;47.70
42227;DHT22;27892;52.378;13.122;2023-05-14T05:42:30;18.90;46.70
42227;DHT22;27892;52.378;13.122;2023-05-14T05:45:15;19.00;45.70
42227;DHT22;27892;52.378;13.122;2023-05-14T05:47:59;19.20;45.00
42227;DHT22;27892;52.378;13.122;2023-05-14T05:50:45;19.40;44.60
42227;DHT22;27892;52.378;13.122;2023-05-14T05:53:30;19.70;44.30
42227;DHT22;27892;52.378;13.122;2023-05-14T05:56:14;20.70;41.90
42227;DHT22;27892;52.378;13.122;2023-05-14T05:58:58;21.60;42.20
42227;DHT22;27892;52.378;13.122;2023-05-14T06:01:42;23.40;39.30
42227;DHT22;27892;52.378;13.122;2023-05-14T06:04:26;24.50;37.80
42227;DHT22;27892;52.378;13.122;2023-05-14T06:07:11;25.80;33.80
42227;DHT22;27892;52.378;13.122;2023-05-14T06:09:55;25.40;32.20
42227;DHT22;27892;52.378;13.122;2023-05-14T06:12:39;23.80;33.90
42227;DHT22;27892;52.378;13.122;2023-05-14T06:15:24;22.90;35.70
42227;DHT22;27892;52.378;13.122;2023-05-14T06:18:08;22.90;36.40
42227;DHT22;27892;52.378;13.122;2023-05-14T06:20:52;23.60;35.80
42227;DHT22;27892;52.378;13.122;2023-05-14T06:23:36;23.50;34.40
42227;DHT22;27892;52.378;13.122;2023-05-14T06:26:20;22.60;35.10
42227;DHT22;27892;52.378;13.122;2023-05-14T06:29:05;21.90;36.90
42227;DHT22;27892;52.378;13.122;2023-05-14T06:31:49;21.70;37.50
42227;DHT22;27892;52.378;13.122;2023-05-14T06:34:33;21.60;37.70
42227;DHT22;27892;52.378;13.122;2023-05-14T06:37:17;21.40;37.80
42227;DHT22;27892;52.378;13.122;2023-05-14T06:40:01;21.50;38.60
42227;DHT22;27892;52.378;13.122;2023-05-14T06:42:46;21.80;37.70
42227;DHT22;27892;52.378;13.122;2023-05-14T06:45:30;21.80;37.90
42227;DHT22;27892;52.378;13.122;2023-05-14T06:48:15;21.50;38.10
42227;DHT22;27892;52.378;13.122;2023-05-14T06:51:01;21.40;38.40
42227;DHT22;27892;52.378;13.122;2023-05-14T06:53:46;21.60;37.60
42227;DHT22;27892;52.378;13.122;2023-05-14T06:56:32;21.40;38.20
42227;DHT22;27892;52.378;13.122;2023-05-14T06:59:16;21.10;38.70
42227;DHT22;27892;52.378;13.122;2023-05-14T07:02:01;20.90;39.30
42227;DHT22;27892;52.378;13.122;2023-05-14T07:04:46;20.80;39.80
42227;DHT22;27892;52.378;13.122;2023-05-14T07:07:30;20.60;39.60
42227;DHT22;27892;52.378;13.122;2023-05-14T07:10:15;20.40;40.30
42227;DHT22;27892;52.378;13.122;2023-05-14T07:12:59;20.40;40.10
42227;DHT22;27892;52.378;13.122;2023-05-14T07:15:43;20.50;40.40
42227;DHT22;27892;52.378;13.122;2023-05-14T07:18:28;20.80;40.70
42227;DHT22;27892;52.378;13.122;2023-05-14T07:21:12;20.80;40.50
42227;DHT22;27892;52.378;13.122;2023-05-14T07:23:56;20.50;39.60
42227;DHT22;27892;52.378;13.122;2023-05-14T07:26:40;20.50;40.30
42227;DHT22;27892;52.378;13.122;2023-05-14T07:29:25;20.60;40.80
42227;DHT22;27892;52.378;13.122;2023-05-14T07:32:09;20.80;40.60
42227;DHT22;27892;52.378;13.122;2023-05-14T07:34:54;21.20;40.90
42227;DHT22;27892;52.378;13.122;2023-05-14T07:37:39;21.70;40.80
42227;DHT22;27892;52.378;13.122;2023-05-14T07:40:23;22.10;39.80
42227;DHT22;27892;52.378;13.122;2023-05-14T07:43:08;22.30;39.10
42227;DHT22;27892;52.378;13.122;2023-05-14T07:45:53;22.70;38.90
42227;DHT22;27892;52.378;13.122;2023-05-14T07:48:38;22.90;38.60
42227;DHT22;27892;52.378;13.122;2023-05-14T07:51:22;23.60;38.10
42227;DHT22;27892;52.378;13.122;2023-05-14T07:54:07;24.40;37.70
42227;DHT22;27892;52.378;13.122;2023-05-14T07:56:51;25.00;36.50
42227;DHT22;27892;52.378;13.122;2023-05-14T07:59:35;24.90;34.70
42227;DHT22;27892;52.378;13.122;2023-05-14T08:02:20;25.60;34.40
42227;DHT22;27892;52.378;13.122;2023-05-14T08:05:05;25.90;34.80
42227;DHT22;27892;52.378;13.122;2023-05-14T08:07:49;25.90;32.90
42227;DHT22;27892;52.378;13.122;2023-05-14T08:10:33;25.80;33.40
42227;DHT22;27892;52.378;13.122;2023-05-14T08:13:17;25.80;33.40
42227;DHT22;27892;52.378;13.122;2023-05-14T08:16:01;25.40;32.10
42227;DHT22;27892;52.378;13.122;2023-05-14T08:18:45;25.50;33.80
42227;DHT22;27892;52.378;13.122;2023-05-14T08:21:30;25.90;32.80
42227;DHT22;27892;52.378;13.122;2023-05-14T08:24:17;26.10;32.40
42227;DHT22;27892;52.378;13.122;2023-05-14T08:27:01;26.50;31.60
42227;DHT22;27892;52.378;13.122;2023-05-14T08:29:46;26.40;31.60
42227;DHT22;27892;52.378;13.122;2023-05-14T08:32:30;26.60;32.80
42227;DHT22;27892;52.378;13.122;2023-05-14T08:35:14;26.80;31.80
42227;DHT22;27892;52.378;13.122;2023-05-14T08:37:59;26.80;31.10
42227;DHT22;27892;52.378;13.122;2023-05-14T08:40:48;26.80;30.00
42227;DHT22;27892;52.378;13.122;2023-05-14T08:46:40;26.30;31.30
42227;DHT22;27892;52.378;13.122;2023-05-14T08:49:40;26.00;31.00
42227;DHT22;27892;52.378;13.122;2023-05-14T08:52:25;26.60;32.20
42227;DHT22;27892;52.378;13.122;2023-05-14T08:55:10;27.10;30.10
42227;DHT22;27892;52.378;13.122;2023-05-14T08:57:55;26.50;29.50
42227;DHT22;27892;52.378;13.122;2023-05-14T09:00:21;26.20;30.30
42227;DHT22;27892;52.378;13.122;2023-05-14T09:02:47;26.30;30.60
42227;DHT22;27892;52.378;13.122;2023-05-14T09:05:14;26.10;30.60
42227;DHT22;27892;52.378;13.122;2023-05-14T09:08:00;26.30;30.20
42227;DHT22;27892;52.378;13.122;2023-05-14T09:10:44;26.80;31.90
42227;DHT22;27892;52.378;13.122;2023-05-14T09:13:29;27.20;30.00
42227;DHT22;27892;52.378;13.122;2023-05-14T09:16:14;26.90;28.00
42227;DHT22;27892;52.378;13.122;2023-05-14T09:19:01;26.40;29.60
42227;DHT22;27892;52.378;13.122;2023-05-14T09:21:47;26.20;29.00
42227;DHT22;27892;52.378;13.122;2023-05-14T09:24:31;26.70;29.30
42227;DHT22;27892;52.378;13.122;2023-05-14T09:27:18;27.10;28.20
42227;DHT22;27892;52.378;13.122;2023-05-14T09:30:10;27.30;29.00
42227;DHT22;27892;52.378;13.122;2023-05-14T09:32:55;26.80;27.70
42227;DHT22;27892;52.378;13.122;2023-05-14T09:35:39;26.60;27.90
42227;DHT22;27892;52.378;13.122;2023-05-14T09:38:30;26.30;28.90
42227;DHT22;27892;52.378;13.122;2023-05-14T09:41:14;26.80;29.00
42227;DHT22;27892;52.378;13.122;2023-05-14T09:43:59;27.40;28.90
42227;DHT22;27892;52.378;13.122;2023-05-14T09:46:45;27.70;29.00
42227;DHT22;27892;52.378;13.122;2023-05-14T09:49:29;27.60;28.00
42227;DHT22;27892;52.378;13.122;2023-05-14T09:52:14;27.60;27.70
42227;DHT22;27892;52.378;13.122;2023-05-14T09:55:01;27.80;27.30
42227;DHT22;27892;52.378;13.122;2023-05-14T09:57:45;28.10;27.10
42227;DHT22;27892;52.378;13.122;2023-05-14T10:00:34;28.10;26.40
42227;DHT22;27892;52.378;13.122;2023-05-14T10:03:19;28.10;26.70
42227;DHT22;27892;52.378;13.122;2023-05-14T10:06:05;28.00;25.90
42227;DHT22;27892;52.378;13.122;2023-05-14T10:08:55;27.50;26.40
42227;DHT22;27892;52.378;13.122;2023-05-14T10:11:42;27.10;26.70
42227;DHT22;27892;52.378;13.122;2023-05-14T10:14:39;27.10;26.80
42227;DHT22;27892;52.378;13.122;2023-05-14T10:17:26;26.80;26.70
42227;DHT22;27892;52.378;13.122;2023-05-14T10:20:14;26.50;26.80
42227;DHT22;27892;52.378;13.122;2023-05-14T10:23:01;26.40;26.70
42227;DHT22;27892;52.378;13.122;2023-05-14T10:25:46;26.80;26.50
42227;DHT22;27892;52.378;13.122;2023-05-14T10:28:31;26.70;26.80
42227;DHT22;27892;52.378;13.122;2023-05-14T10:31:15;26.60;27.20
42227;DHT22;27892;52.378;13.122;2023-05-14T10:34:00;26.40;26.60
42227;DHT22;27892;52.378;13.122;2023-05-14T10:36:44;26.30;27.30
42227;DHT22;27892;52.378;13.122;2023-05-14T10:43:03;26.30;27.60
42227;DHT22;27892;52.378;13.122;2023-05-14T10:45:48;25.80;27.30
42227;DHT22;27892;52.378;13.122;2023-05-14T10:48:33;25.40;27.30
42227;DHT22;27892;52.378;13.122;2023-05-14T10:51:17;25.50;28.00
42227;DHT22;27892;52.378;13.122;2023-05-14T10:54:07;25.50;28.50
42227;DHT22;27892;52.378;13.122;2023-05-14T10:56:52;25.20;28.30
42227;DHT22;27892;52.378;13.122;2023-05-14T10:59:40;25.10;28.90
42227;DHT22;27892;52.378;13.122;2023-05-14T11:02:29;24.90;28.70
42227;DHT22;27892;52.378;13.122;2023-05-14T11:05:14;24.90;28.80
42227;DHT22;27892;52.378;13.122;2023-05-14T11:08:03;24.70;28.80
42227;DHT22;27892;52.378;13.122;2023-05-14T11:10:49;24.80;29.80
42227;DHT22;27892;52.378;13.122;2023-05-14T11:13:33;24.90;29.80
42227;DHT22;27892;52.378;13.122;2023-05-14T11:16:20;24.90;30.30
42227;DHT22;27892;52.378;13.122;2023-05-14T11:19:06;24.90;29.50
42227;DHT22;27892;52.378;13.122;2023-05-14T11:21:50;25.00;29.70
42227;DHT22;27892;52.378;13.122;2023-05-14T11:24:34;25.10;29.70
42227;DHT22;27892;52.378;13.122;2023-05-14T11:27:20;25.10;29.40
42227;DHT22;27892;52.378;13.122;2023-05-14T11:30:10;25.20;29.60
42227;DHT22;27892;52.378;13.122;2023-05-14T11:32:55;25.10;29.20
42227;DHT22;27892;52.378;13.122;2023-05-14T11:35:39;25.10;29.40
42227;DHT22;27892;52.378;13.122;2023-05-14T11:38:25;25.00;29.00
42227;DHT22;27892;52.378;13.122;2023-05-14T11:41:10;25.10;29.30
42227;DHT22;27892;52.378;13.122;2023-05-14T11:43:57;25.00;28.80
42227;DHT22;27892;52.378;13.122;2023-05-14T11:46:53;24.80;28.60
42227;DHT22;27892;52.378;13.122;2023-05-14T11:49:37;24.90;29.30
42227;DHT22;27892;52.378;13.122;2023-05-14T11:52:22;25.10;30.00
42227;DHT22;27892;52.378;13.122;2023-05-14T11:55:10;25.40;29.70
42227;DHT22;27892;52.378;13.122;2023-05-14T11:57:55;25.30;29.20
42227;DHT22;27892;52.378;13.122;2023-05-14T12:00:40;25.40;29.20
42227;DHT22;27892;52.378;13.122;2023-05-14T12:03:24;25.10;28.10
42227;DHT22;27892;52.378;13.122;2023-05-14T12:06:09;24.90;28.40
42227;DHT22;27892;52.378;13.122;2023-05-14T12:08:54;25.10;28.80
42227;DHT22;27892;52.378;13.122;2023-05-14T12:11:20;25.00;29.20
42227;DHT22;27892;52.378;13.122;2023-05-14T12:13:46;25.00;28.20
42227;DHT22;27892;52.378;13.122;2023-05-14T12:16:12;25.00;28.30
42227;DHT22;27892;52.378;13.122;2023-05-14T12:19:00;25.00;28.60
42227;DHT22;27892;52.378;13.122;2023-05-14T12:21:46;25.00;29.00
42227;DHT22;27892;52.378;13.122;2023-05-14T12:24:30;24.90;28.70
42227;DHT22;27892;52.378;13.122;2023-05-14T12:27:15;24.80;28.70
42227;DHT22;27892;52.378;13.122;2023-05-14T12:30:04;24.70;28.50
42227;DHT22;27892;52.378;13.122;2023-05-14T12:32:48;24.30;28.50
42227;DHT22;27892;52.378;13.122;2023-05-14T12:35:35;24.00;29.10
42227;DHT22;27892;52.378;13.122;2023-05-14T12:38:20;24.00;28.80
42227;DHT22;27892;52.378;13.122;2023-05-14T12:41:04;24.20;29.20
42227;DHT22;27892;52.378;13.122;2023-05-14T12:43:48;24.40;29.20
42227;DHT22;27892;52.378;13.122;2023-05-14T12:46:32;24.80;30.30
42227;DHT22;27892;52.378;13.122;2023-05-14T12:49:18;25.10;29.60
42227;DHT22;27892;52.378;13.122;2023-05-14T12:52:03;25.30;29.60
42227;DHT22;27892;52.378;13.122;2023-05-14T12:54:47;25.60;30.00
42227;DHT22;27892;52.378;13.122;2023-05-14T12:57:31;25.70;28.80
42227;DHT22;27892;52.378;13.122;2023-05-14T13:00:18;25.80;29.30
42227;DHT22;27892;52.378;13.122;2023-05-14T13:03:02;25.70;29.00
42227;DHT22;27892;52.378;13.122;2023-05-14T13:05:46;25.70;28.20
42227;DHT22;27892;52.378;13.122;2023-05-14T13:08:30;25.50;28.20
42227;DHT22;27892;52.378;13.122;2023-05-14T13:11:14;25.20;29.00
42227;DHT22;27892;52.378;13.122;2023-05-14T13:13:59;25.30;28.70
42227;DHT22;27892;52.378;13.122;2023-05-14T13:16:44;25.00;27.90
42227;DHT22;27892;52.378;13.122;2023-05-14T13:19:28;25.00;28.70
42227;DHT22;27892;52.378;13.122;2023-05-14T13:22:12;25.00;28.40
42227;DHT22;27892;52.378;13.122;2023-05-14T13:24:57;24.90;28.50
42227;DHT22;27892;52.378;13.122;2023-05-14T13:27:42;24.80;28.30
42227;DHT22;27892;52.378;13.122;2023-05-14T13:30:26;24.70;28.60
42227;DHT22;27892;52.378;13.122;2023-05-14T13:33:10;24.70;28.80
42227;DHT22;27892;52.378;13.122;2023-05-14T13:35:54;24.70;28.70
42227;DHT22;27892;52.378;13.122;2023-05-14T13:38:38;24.70;29.10
42227;DHT22;27892;52.378;13.122;2023-05-14T13:41:24;24.70;29.20
42227;DHT22;27892;52.378;13.122;2023-05-14T13:44:09;24.70;29.00
42227;DHT22;27892;52.378;13.122;2023-05-14T13:46:53;24.70;29.10
42227;DHT22;27892;52.378;13.122;2023-05-14T13:49:37;24.70;29.00
42227;DHT22;27892;52.378;13.122;2023-05-14T13:52:22;24.80;28.80
42227;DHT22;27892;52.378;13.122;2023-05-14T13:55:06;24.80;28.60
42227;DHT22;27892;52.378;13.122;2023-05-14T13:57:50;24.60;27.70
42227;DHT22;27892;52.378;13.122;2023-05-14T14:00:35;24.50;28.10
42227;DHT22;27892;52.378;13.122;2023-05-14T14:03:19;24.40;27.90
42227;DHT22;27892;52.378;13.122;2023-05-14T14:06:03;24.40;28.10
42227;DHT22;27892;52.378;13.122;2023-05-14T14:08:47;24.50;28.20
42227;DHT22;27892;52.378;13.122;2023-05-14T14:11:31;24.70;28.30
42227;DHT22;27892;52.378;13.122;2023-05-14T14:14:16;24.90;28.70
42227;DHT22;27892;52.378;13.122;2023-05-14T14:17:00;24.90;28.10
42227;DHT22;27892;52.378;13.122;2023-05-14T14:19:45;24.60;28.00
42227;DHT22;27892;52.378;13.122;2023-05-14T14:22:29;24.60;28.70
42227;DHT22;27892;52.378;13.122;2023-05-14T14:25:13;24.60;28.60
42227;DHT22;27892;52.378;13.122;2023-05-14T14:27:57;24.60;28.70
42227;DHT22;27892;52.378;13.122;2023-05-14T14:30:41;24.50;29.00
42227;DHT22;27892;52.378;13.122;2023-05-14T14:33:26;24.40;29.00
42227;DHT22;27892;52.378;13.122;2023-05-14T14:36:11;24.50;29.40
42227;DHT22;27892;52.378;13.122;2023-05-14T14:38:55;24.50;29.60
42227;DHT22;27892;52.378;13.122;2023-05-14T14:41:39;24.50;30.90
42227;DHT22;27892;52.378;13.122;2023-05-14T14:44:23;24.50;30.40
42227;DHT22;27892;52.378;13.122;2023-05-14T14:47:08;24.50;30.00
42227;DHT22;27892;52.378;13.122;2023-05-14T14:49:53;24.50;30.90
42227;DHT22;27892;52.378;13.122;2023-05-14T14:52:37;24.50;30.40
42227;DHT22;27892;52.378;13.122;2023-05-14T14:55:23;24.50;30.00
42227;DHT22;27892;52.378;13.122;2023-05-14T14:58:07;24.60;30.00
42227;DHT22;27892;52.378;13.122;2023-05-14T15:00:53;24.60;30.90
42227;DHT22;27892;52.378;13.122;2023-05-14T15:03:37;24.60;29.90
42227;DHT22;27892;52.378;13.122;2023-05-14T15:06:21;24.50;29.40
42227;DHT22;27892;52.378;13.122;2023-05-14T15:09:06;24.50;29.80
42227;DHT22;27892;52.378;13.122;2023-05-14T15:11:51;24.50;29.20
42227;DHT22;27892;52.378;13.122;2023-05-14T15:14:35;24.50;29.10
42227;DHT22;27892;52.378;13.122;2023-05-14T15:17:19;24.50;29.20
42227;DHT22;27892;52.378;13.122;2023-05-14T15:20:03;24.70;29.80
42227;DHT22;27892;52.378;13.122;2023-05-14T15:22:50;24.80;29.10
42227;DHT22;27892;52.378;13.122;2023-05-14T15:25:36;24.80;29.10
42227;DHT22;27892;52.378;13.122;2023-05-14T15:28:20;24.80;29.20
42227;DHT22;27892;52.378;13.122;2023-05-14T15:31:04;24.70;28.90
42227;DHT22;27892;52.378;13.122;2023-05-14T15:33:52;24.60;28.90
42227;DHT22;27892;52.378;13.122;2023-05-14T15:36:39;24.60;29.00
42227;DHT22;27892;52.378;13.122;2023-05-14T15:39:24;24.70;29.70
42227;DHT22;27892;52.378;13.122;2023-05-14T15:42:08;24.50;29.10
42227;DHT22;27892;52.378;13.122;2023-05-14T15:44:53;24.40;29.20
42227;DHT22;27892;52.378;13.122;2023-05-14T15:47:39;24.60;29.60
42227;DHT22;27892;52.378;13.122;2023-05-14T15:50:23;24.60;29.50
42227;DHT22;27892;52.378;13.122;2023-05-14T15:53:10;24.70;29.70
42227;DHT22;27892;52.378;13.122;2023-05-14T15:55:54;24.50;29.10
42227;DHT22;27892;52.378;13.122;2023-05-14T15:58:39;24.40;29.20
42227;DHT22;27892;52.378;13.122;2023-05-14T16:01:23;24.30;29.30
42227;DHT22;27892;52.378;13.122;2023-05-14T16:04:07;24.20;29.50
42227;DHT22;27892;52.378;13.122;2023-05-14T16:06:51;24.20;29.50
42227;DHT22;27892;52.378;13.122;2023-05-14T16:09:35;24.30;29.90
42227;DHT22;27892;52.378;13.122;2023-05-14T16:12:19;24.40;29.70
42227;DHT22;27892;52.378;13.122;2023-05-14T16:15:05;24.20;28.90
42227;DHT22;27892;52.378;13.122;2023-05-14T16:17:49;24.10;28.90
42227;DHT22;27892;52.378;13.122;2023-05-14T16:20:33;24.20;29.20
42227;DHT22;27892;52.378;13.122;2023-05-14T16:23:19;24.20;29.10
42227;DHT22;27892;52.378;13.122;2023-05-14T16:26:04;24.20;29.00
42227;DHT22;27892;52.378;13.122;2023-05-14T16:28:48;23.50;28.80
42227;DHT22;27892;52.378;13.122;2023-05-14T16:31:33;23.50;29.00
42227;DHT22;27892;52.378;13.122;2023-05-14T16:34:17;23.30;29.00
42227;DHT22;27892;52.378;13.122;2023-05-14T16:37:01;23.50;29.20
42227;DHT22;27892;52.378;13.122;2023-05-14T16:39:47;23.80;29.50
42227;DHT22;27892;52.378;13.122;2023-05-14T16:42:31;23.80;29.00
42227;DHT22;27892;52.378;13.122;2023-05-14T16:45:15;23.50;28.60
42227;DHT22;27892;52.378;13.122;2023-05-14T16:47:59;23.70;29.30
42227;DHT22;27892;52.378;13.122;2023-05-14T16:50:44;23.70;29.20
42227;DHT22;27892;52.378;13.122;2023-05-14T16:53:28;23.70;29.20
42227;DHT22;27892;52.378;13.122;2023-05-14T16:56:12;23.80;29.30
42227;DHT22;27892;52.378;13.122;2023-05-14T16:58:57;23.80;29.50
42227;DHT22;27892;52.378;13.122;2023-05-14T17:01:42;23.90;29.60
42227;DHT22;27892;52.378;13.122;2023-05-14T17:04:27;23.90;29.90
42227;DHT22;27892;52.378;13.122;2023-05-14T17:07:11;23.80;29.30
42227;DHT22;27892;52.378;13.122;2023-05-14T17:09:56;23.80;29.70
42227;DHT22;27892;52.378;13.122;2023-05-14T17:12:43;23.70;29.40
42227;DHT22;27892;52.378;13.122;2023-05-14T17:15:28;23.40;29.50
42227;DHT22;27892;52.378;13.122;2023-05-14T17:18:12;23.40;29.80